メインページ
METAR-TAF:

METAR-TAF

空港 :

マイアミ, フロリダ州, アメリカ合衆国

マイアミ国際空港

緯度: 25-47-26N, 経度: 080-18-59W, 海抜: 3m

現時点の気象観測

当レポートは34分前の15:53(UTC)に作成
無風
気温 28°C
湿度 58%
気圧 1014 hPa
視程: 16.1km
高度2600ftの雲はほとんどない

METAR: KMIA 221553Z 00000KT 10SM FEW026 28/19 A2994 RMK AO2 SLP140 T02780194

時間: 11:27 (16:27 UTC)

予報

当レポートは1時間27分前の15:00(UTC)に作成
予報は22日の 15時(UTC)から 23日の 18時(UTC)まで有効
変向風 3kt
視程: 10km
高度2500ftの雲はほとんどない
22日の 1700時(UTC)から
の風 8kt
視程: 10km
高度3000ftの雲は散在している
高度25000ftの雲は散在している
23日の 0000時(UTC)から
変向風 3kt
視程: 10km
高度3000ftの雲はほとんどない
高度25000ftの雲は散在している

TAF: KMIA 221500Z 2215/2318 VRB03KT P6SM FEW025 FM221700 10008KT P6SM SCT030 SCT250 FM230000 VRB03KT P6SM FEW030 SCT250

4,000以上の空港の気象観測と天気予報(METAR報とTAF報)

利用可能な観測所は地図上に黄色い丸と赤い丸で示す。

丸の上にカーソルを重ねると観測所名を参照できる。

次にクリックすると気象観測と天気予報を参照できる。

マップの切り替え:黒色「×」印の緑ボタンをクリックして拡大、「-」印の緑ボタンをクリックして縮小、緑色の三角印をクリックして隣りの地図に切り替え


METAR-TAF: